Time;durP1;ratioP1;P1;durP2;ratioP2;P2;SDS_P1;SDS_P2;PMS_P1;PMS_P2;Temp;Humidity;BMP_temperature;BMP_pressure;BME280_temperature;BME280_humidity;BME280_pressure;Samples;Min_cycle;Max_cycle;Signal;HPM_P1;HPM_P2
2020/12/18 00:01:30;;;;;;;;;;;16.70;65.20;;;;;;5027070;28;19940;-65
2020/12/18 00:03:56;;;;;;;;;;;16.70;64.70;;;;;;5052070;28;19909;-66
2020/12/18 00:06:22;;;;;;;;;;;16.70;65.10;;;;;;5059727;28;19967;-67
2020/12/18 00:08:48;;;;;;;;;;;16.70;64.90;;;;;;5026604;28;20379;-68
2020/12/18 00:11:21;;;;;;;;;;;16.70;65.10;;;;;;5034241;28;19954;-67
2020/12/18 00:13:46;;;;;;;;;;;16.70;66.20;;;;;;5057235;28;19912;-66
2020/12/18 00:16:12;;;;;;;;;;;16.70;65.30;;;;;;5043477;28;19904;-66
2020/12/18 00:18:37;;;;;;;;;;;16.70;64.90;;;;;;5059215;28;19915;-64
2020/12/18 00:21:03;;;;;;;;;;;16.60;64.70;;;;;;5055390;28;19909;-64
2020/12/18 00:23:28;;;;;;;;;;;16.60;64.80;;;;;;5054835;28;19981;-65
2020/12/18 00:25:53;;;;;;;;;;;16.60;64.60;;;;;;5031976;28;19908;-65
2020/12/18 00:28:19;;;;;;;;;;;16.60;64.50;;;;;;5043949;28;19920;-65
2020/12/18 00:30:46;;;;;;;;;;;16.60;65.00;;;;;;5057195;28;19905;-66
2020/12/18 00:33:11;;;;;;;;;;;16.60;65.30;;;;;;5054201;28;19912;-65
2020/12/18 00:35:36;;;;;;;;;;;16.60;65.90;;;;;;5036264;28;19909;-64
2020/12/18 00:38:02;;;;;;;;;;;16.60;65.00;;;;;;5044850;28;19908;-65
2020/12/18 00:40:28;;;;;;;;;;;16.60;65.30;;;;;;5019895;28;19984;-65
2020/12/18 00:42:53;;;;;;;;;;;16.60;65.40;;;;;;5047332;28;20223;-66
2020/12/18 00:45:19;;;;;;;;;;;16.60;64.80;;;;;;5030239;28;20015;-65
2020/12/18 00:47:44;;;;;;;;;;;16.60;66.20;;;;;;5032355;28;19909;-66
2020/12/18 00:50:09;;;;;;;;;;;16.60;65.70;;;;;;5033763;28;19921;-66
2020/12/18 00:52:35;;;;;;;;;;;16.60;65.90;;;;;;5042522;28;19925;-63
2020/12/18 00:55:00;;;;;;;;;;;16.60;65.70;;;;;;5034299;28;19913;-63
2020/12/18 00:57:26;;;;;;;;;;;16.60;64.90;;;;;;5043697;28;20062;-66
2020/12/18 00:59:51;;;;;;;;;;;16.60;66.00;;;;;;5020532;28;19958;-66
2020/12/18 01:02:17;;;;;;;;;;;16.50;65.10;;;;;;5042557;28;20401;-65
2020/12/18 01:04:42;;;;;;;;;;;16.50;64.20;;;;;;5042077;28;19909;-66
2020/12/18 01:07:08;;;;;;;;;;;16.50;65.10;;;;;;5049846;28;19909;-65
2020/12/18 01:09:33;;;;;;;;;;;16.50;65.10;;;;;;5042806;28;19909;-67
2020/12/18 01:11:59;;;;;;;;;;;16.50;64.80;;;;;;5040423;28;19908;-65
2020/12/18 01:14:24;;;;;;;;;;;16.50;65.10;;;;;;5020927;28;20518;-66
2020/12/18 01:16:53;;;;;;;;;;;16.40;65.10;;;;;;5041128;28;20030;-64
2020/12/18 01:19:19;;;;;;;;;;;16.40;65.50;;;;;;5031692;28;19935;-66
2020/12/18 01:21:45;;;;;;;;;;;16.40;64.50;;;;;;5045298;28;20598;-66
2020/12/18 01:24:11;;;;;;;;;;;16.50;65.10;;;;;;5045337;28;19915;-64
2020/12/18 01:26:36;;;;;;;;;;;16.50;65.20;;;;;;5039965;28;20009;-65
2020/12/18 01:29:02;;;;;;;;;;;16.50;65.10;;;;;;5027164;28;19916;-65
2020/12/18 01:31:27;;;;;;;;;;;16.40;64.20;;;;;;5035184;28;20423;-66
2020/12/18 01:33:53;;;;;;;;;;;16.40;64.70;;;;;;5033053;28;20318;-65
2020/12/18 01:36:19;;;;;;;;;;;16.40;64.70;;;;;;5034382;28;19917;-65
2020/12/18 01:38:44;;;;;;;;;;;16.50;66.10;;;;;;5027670;28;20007;-65
2020/12/18 01:41:10;;;;;;;;;;;16.40;65.00;;;;;;5020975;28;19913;-66
2020/12/18 01:43:36;;;;;;;;;;;16.40;64.90;;;;;;5036090;28;19916;-67
2020/12/18 01:46:06;;;;;;;;;;;16.40;64.80;;;;;;5044696;28;19911;-66
2020/12/18 01:48:32;;;;;;;;;;;16.40;64.80;;;;;;5034105;28;19924;-63
2020/12/18 01:50:57;;;;;;;;;;;16.40;65.00;;;;;;5035162;28;19955;-65
2020/12/18 01:53:24;;;;;;;;;;;16.40;65.20;;;;;;5048706;28;19960;-65
2020/12/18 01:55:50;;;;;;;;;;;16.40;64.70;;;;;;5038775;28;19913;-67
2020/12/18 01:58:15;;;;;;;;;;;16.40;65.40;;;;;;5031967;28;19970;-64
2020/12/18 02:03:44;;;;;;;;;;;16.40;65.00;;;;;;5041682;28;19927;-66
2020/12/18 02:06:12;;;;;;;;;;;16.30;64.60;;;;;;5042771;28;20362;-65
2020/12/18 02:11:41;;;;;;;;;;;16.30;64.60;;;;;;5045645;28;19916;-66
2020/12/18 02:14:09;;;;;;;;;;;16.40;66.20;;;;;;5049654;28;19908;-66
2020/12/18 02:16:35;;;;;;;;;;;16.40;65.90;;;;;;5044817;28;20263;-67
2020/12/18 02:19:00;;;;;;;;;;;16.40;65.80;;;;;;5042005;28;19954;-66
2020/12/18 02:21:26;;;;;;;;;;;16.40;63.90;;;;;;5038621;28;19916;-66
2020/12/18 02:23:51;;;;;;;;;;;16.30;64.40;;;;;;5037376;28;20429;-67
2020/12/18 02:26:18;;;;;;;;;;;16.30;65.10;;;;;;5051369;28;19909;-66
2020/12/18 02:28:45;;;;;;;;;;;16.30;65.40;;;;;;5043899;28;19920;-65
2020/12/18 02:31:11;;;;;;;;;;;16.30;66.30;;;;;;5046138;28;20365;-67
2020/12/18 02:33:39;;;;;;;;;;;16.40;65.70;;;;;;5044415;28;19919;-65
2020/12/18 02:36:04;;;;;;;;;;;16.30;65.20;;;;;;5040641;28;19905;-67
2020/12/18 02:38:30;;;;;;;;;;;16.30;65.30;;;;;;5036755;28;19916;-66
2020/12/18 02:40:55;;;;;;;;;;;16.30;65.80;;;;;;5044245;28;19915;-65
2020/12/18 02:43:21;;;;;;;;;;;16.30;65.20;;;;;;5041626;28;19905;-66
2020/12/18 02:45:47;;;;;;;;;;;16.30;65.20;;;;;;5039394;28;19909;-66
2020/12/18 02:48:12;;;;;;;;;;;16.30;64.70;;;;;;5044730;28;19913;-67
2020/12/18 02:50:38;;;;;;;;;;;16.30;65.10;;;;;;5043559;28;19916;-66
2020/12/18 02:53:11;;;;;;;;;;;16.30;65.00;;;;;;5035501;28;19916;-66
2020/12/18 02:55:36;;;;;;;;;;;16.30;65.00;;;;;;5046647;28;19916;-66
2020/12/18 02:58:02;;;;;;;;;;;16.20;65.10;;;;;;5038819;28;19908;-65
2020/12/18 03:00:27;;;;;;;;;;;16.20;65.10;;;;;;5038748;28;19933;-66
2020/12/18 03:02:52;;;;;;;;;;;16.30;65.50;;;;;;5045974;28;19909;-66
2020/12/18 03:05:18;;;;;;;;;;;16.30;65.90;;;;;;5051783;28;20065;-64
2020/12/18 03:07:43;;;;;;;;;;;16.20;65.60;;;;;;5032956;28;20432;-66
2020/12/18 03:10:09;;;;;;;;;;;16.20;65.30;;;;;;5041110;28;20385;-66
2020/12/18 03:12:34;;;;;;;;;;;16.20;65.10;;;;;;5046422;28;19912;-65
2020/12/18 03:14:59;;;;;;;;;;;16.20;64.10;;;;;;5049623;28;19967;-65
2020/12/18 03:17:25;;;;;;;;;;;16.20;65.80;;;;;;5031525;28;19909;-67
2020/12/18 03:19:50;;;;;;;;;;;16.20;66.30;;;;;;5032258;28;19936;-66
2020/12/18 03:22:16;;;;;;;;;;;16.20;65.30;;;;;;5038587;28;19947;-64
2020/12/18 03:24:41;;;;;;;;;;;16.20;64.50;;;;;;5037148;28;19963;-66
2020/12/18 03:27:07;;;;;;;;;;;16.20;64.70;;;;;;5036920;28;19920;-64
2020/12/18 03:29:32;;;;;;;;;;;16.20;64.80;;;;;;5049483;28;19908;-67
2020/12/18 03:31:57;;;;;;;;;;;16.20;65.60;;;;;;5043118;28;19909;-66
2020/12/18 03:34:24;;;;;;;;;;;16.20;63.90;;;;;;5041011;28;19908;-66
2020/12/18 03:36:49;;;;;;;;;;;16.20;64.40;;;;;;5049000;28;19909;-67
2020/12/18 03:39:14;;;;;;;;;;;16.20;65.60;;;;;;5036188;28;19909;-64
2020/12/18 03:41:40;;;;;;;;;;;16.20;64.60;;;;;;5045092;28;19908;-66
2020/12/18 03:44:05;;;;;;;;;;;16.20;65.30;;;;;;5034911;28;19905;-68
2020/12/18 03:46:31;;;;;;;;;;;16.20;65.00;;;;;;5033837;28;20275;-66
2020/12/18 03:48:56;;;;;;;;;;;16.20;65.60;;;;;;5015137;28;20286;-66
2020/12/18 03:51:22;;;;;;;;;;;16.20;64.90;;;;;;5039983;28;20026;-65
2020/12/18 03:53:48;;;;;;;;;;;16.20;64.90;;;;;;5032708;28;20478;-66
2020/12/18 03:56:13;;;;;;;;;;;16.20;65.00;;;;;;5015868;28;19909;-65
2020/12/18 03:58:39;;;;;;;;;;;16.20;64.30;;;;;;5016799;28;19909;-64
2020/12/18 04:01:04;;;;;;;;;;;16.10;64.50;;;;;;5036098;28;19909;-66
2020/12/18 04:03:29;;;;;;;;;;;16.10;64.70;;;;;;5052119;28;19996;-65
2020/12/18 04:05:55;;;;;;;;;;;16.10;65.60;;;;;;5025878;28;20543;-66
2020/12/18 04:08:20;;;;;;;;;;;16.20;64.90;;;;;;5035949;28;19923;-67
2020/12/18 04:10:46;;;;;;;;;;;16.20;65.70;;;;;;5019836;28;21318;-67
2020/12/18 04:13:11;;;;;;;;;;;16.20;64.80;;;;;;5034235;28;19974;-64
2020/12/18 04:15:39;;;;;;;;;;;16.10;64.90;;;;;;5036935;28;19913;-66
2020/12/18 04:18:05;;;;;;;;;;;16.20;64.40;;;;;;5036289;28;19952;-65
2020/12/18 04:20:31;;;;;;;;;;;16.10;65.20;;;;;;5037983;28;19949;-66
2020/12/18 04:22:56;;;;;;;;;;;16.10;64.60;;;;;;5040747;28;19943;-67
2020/12/18 04:25:22;;;;;;;;;;;16.10;64.30;;;;;;5032336;28;19909;-65
2020/12/18 04:27:47;;;;;;;;;;;16.10;64.20;;;;;;5042741;28;19915;-67
2020/12/18 04:30:12;;;;;;;;;;;16.10;64.30;;;;;;5044204;28;20458;-66
2020/12/18 04:32:38;;;;;;;;;;;16.10;64.60;;;;;;5025340;28;19917;-68
2020/12/18 04:35:03;;;;;;;;;;;16.10;64.10;;;;;;5031547;28;20373;-66
2020/12/18 04:37:29;;;;;;;;;;;16.10;64.30;;;;;;5045720;28;19913;-66
2020/12/18 04:39:54;;;;;;;;;;;16.10;64.40;;;;;;5040242;28;19970;-67
2020/12/18 04:42:20;;;;;;;;;;;16.10;64.10;;;;;;5025876;28;19913;-66
2020/12/18 04:44:46;;;;;;;;;;;16.10;64.20;;;;;;5033442;28;19974;-66
2020/12/18 04:47:13;;;;;;;;;;;16.10;64.20;;;;;;5046749;28;20005;-66
2020/12/18 04:49:39;;;;;;;;;;;16.10;64.60;;;;;;5033234;28;19924;-66
2020/12/18 04:52:08;;;;;;;;;;;16.10;64.40;;;;;;5019369;28;20366;-66
2020/12/18 04:54:34;;;;;;;;;;;16.10;64.30;;;;;;5030805;28;20282;-65
2020/12/18 04:57:02;;;;;;;;;;;16.10;64.70;;;;;;5014238;28;19978;-66
2020/12/18 04:59:31;;;;;;;;;;;16.10;64.70;;;;;;5038802;28;19909;-66
2020/12/18 05:01:57;;;;;;;;;;;16.10;64.10;;;;;;5042671;28;20440;-66
2020/12/18 05:04:23;;;;;;;;;;;16.10;63.20;;;;;;5033844;28;20007;-67
2020/12/18 05:06:48;;;;;;;;;;;16.00;63.90;;;;;;5032820;28;19905;-67
2020/12/18 05:09:14;;;;;;;;;;;16.00;64.00;;;;;;5065001;28;19935;-66
2020/12/18 05:11:39;;;;;;;;;;;16.10;64.00;;;;;;5047130;28;20358;-65
2020/12/18 05:14:05;;;;;;;;;;;16.00;64.00;;;;;;5066249;28;19920;-64
2020/12/18 05:16:30;;;;;;;;;;;16.00;63.00;;;;;;5050946;28;19909;-63
2020/12/18 05:19:02;;;;;;;;;;;16.00;63.70;;;;;;5043094;28;19995;-63
2020/12/18 05:21:29;;;;;;;;;;;16.00;63.70;;;;;;5060637;28;19905;-67
2020/12/18 05:23:54;;;;;;;;;;;16.00;63.80;;;;;;5027970;28;19916;-66
2020/12/18 05:26:25;;;;;;;;;;;16.00;63.30;;;;;;5035054;28;20370;-65
2020/12/18 05:28:51;;;;;;;;;;;15.90;63.60;;;;;;5047665;28;20404;-66
2020/12/18 05:31:18;;;;;;;;;;;16.00;64.30;;;;;;5053766;28;19913;-66
2020/12/18 05:33:46;;;;;;;;;;;15.90;63.80;;;;;;5025572;28;19913;-65
2020/12/18 05:36:11;;;;;;;;;;;15.90;62.80;;;;;;5032429;28;19962;-67
2020/12/18 05:38:40;;;;;;;;;;;15.90;63.60;;;;;;5040655;28;19955;-66
2020/12/18 05:41:06;;;;;;;;;;;15.90;62.90;;;;;;5043109;28;19967;-66
2020/12/18 05:43:35;;;;;;;;;;;15.80;63.10;;;;;;5023207;28;19924;-66
2020/12/18 05:46:14;;;;;;;;;;;15.90;63.10;;;;;;5055850;28;20449;-66
2020/12/18 05:48:40;;;;;;;;;;;15.80;63.50;;;;;;5038502;28;20978;-66
2020/12/18 05:51:06;;;;;;;;;;;15.90;63.70;;;;;;5046169;28;19908;-65
2020/12/18 05:53:32;;;;;;;;;;;15.80;62.70;;;;;;5038877;28;19970;-65
2020/12/18 05:55:57;;;;;;;;;;;15.80;63.20;;;;;;5050598;28;19946;-65
2020/12/18 05:58:24;;;;;;;;;;;15.90;63.00;;;;;;5049835;28;19920;-64
2020/12/18 06:00:50;;;;;;;;;;;15.90;63.70;;;;;;5050823;28;19970;-63
2020/12/18 06:03:19;;;;;;;;;;;16.00;63.50;;;;;;5019186;28;20404;-64
2020/12/18 06:05:46;;;;;;;;;;;16.00;63.80;;;;;;5016178;28;20043;-65
2020/12/18 06:08:15;;;;;;;;;;;16.00;63.50;;;;;;5041726;28;20147;-65
2020/12/18 06:10:41;;;;;;;;;;;16.00;64.50;;;;;;5026509;28;20007;-65
2020/12/18 06:13:07;;;;;;;;;;;16.10;63.50;;;;;;5030450;28;19960;-65
2020/12/18 06:15:33;;;;;;;;;;;16.00;63.00;;;;;;5017108;28;19971;-64
2020/12/18 06:18:01;;;;;;;;;;;16.00;63.20;;;;;;5042949;28;19935;-64
2020/12/18 06:20:31;;;;;;;;;;;16.10;64.90;;;;;;5019889;28;20382;-64
2020/12/18 06:22:58;;;;;;;;;;;16.10;64.20;;;;;;5017661;28;19913;-63
2020/12/18 06:25:24;;;;;;;;;;;16.00;63.20;;;;;;5020111;28;19909;-60
2020/12/18 06:31:12;;;;;;;;;;;16.00;64.00;;;;;;5039863;28;19932;-60
2020/12/18 06:33:51;;;;;;;;;;;16.10;63.70;;;;;;5034923;28;20682;-61
2020/12/18 06:36:18;;;;;;;;;;;16.00;63.50;;;;;;5047041;28;19967;-62
2020/12/18 06:38:43;;;;;;;;;;;16.00;64.00;;;;;;5030987;28;19913;-63
2020/12/18 06:41:22;;;;;;;;;;;16.00;64.10;;;;;;5029425;28;19993;-61
2020/12/18 06:43:48;;;;;;;;;;;16.10;63.50;;;;;;5034664;28;19974;-62
2020/12/18 06:46:17;;;;;;;;;;;16.10;63.50;;;;;;5029176;28;19917;-62
2020/12/18 06:48:49;;;;;;;;;;;16.20;65.20;;;;;;5033813;28;19940;-61
2020/12/18 06:51:24;;;;;;;;;;;16.20;65.00;;;;;;5035174;28;19909;-62
2020/12/18 06:54:06;;;;;;;;;;;16.40;66.30;;;;;;5039148;28;20364;-62
2020/12/18 06:56:31;;;;;;;;;;;16.60;64.60;;;;;;5041258;28;19908;-64
2020/12/18 06:59:16;;;;;;;;;;;16.70;64.10;;;;;;5038065;28;19912;-62
2020/12/18 07:01:42;;;;;;;;;;;16.80;61.80;;;;;;5048069;28;19913;-62
2020/12/18 07:04:17;;;;;;;;;;;16.70;61.60;;;;;;5034991;28;19904;-63
2020/12/18 07:06:42;;;;;;;;;;;16.70;61.30;;;;;;5026828;28;19909;-64
2020/12/18 07:09:08;;;;;;;;;;;16.70;61.90;;;;;;5032385;28;19909;-63
2020/12/18 07:11:35;;;;;;;;;;;16.70;62.10;;;;;;5035539;28;19995;-62
2020/12/18 07:14:00;;;;;;;;;;;16.70;61.00;;;;;;5053034;28;19912;-62
2020/12/18 07:16:26;;;;;;;;;;;16.70;62.20;;;;;;5053538;28;19905;-62
2020/12/18 07:18:55;;;;;;;;;;;16.60;61.00;;;;;;5035366;28;20373;-63
2020/12/18 07:21:20;;;;;;;;;;;16.50;61.40;;;;;;5034440;28;19912;-63
2020/12/18 07:23:47;;;;;;;;;;;16.50;61.70;;;;;;5036910;28;19916;-61
2020/12/18 07:26:13;;;;;;;;;;;16.50;61.40;;;;;;5032786;28;19905;-63
2020/12/18 07:28:42;;;;;;;;;;;16.50;61.40;;;;;;5015410;28;19909;-62
2020/12/18 07:31:22;;;;;;;;;;;16.50;61.30;;;;;;5033180;28;19905;-63
2020/12/18 07:33:51;;;;;;;;;;;16.40;61.90;;;;;;5015003;28;19909;-63
2020/12/18 07:36:17;;;;;;;;;;;16.40;63.00;;;;;;5015291;28;19956;-63
2020/12/18 07:38:42;;;;;;;;;;;16.40;62.90;;;;;;5046796;28;19956;-63
2020/12/18 07:41:09;;;;;;;;;;;16.50;62.00;;;;;;5035038;28;20407;-64
2020/12/18 07:43:35;;;;;;;;;;;16.50;62.40;;;;;;5032732;28;19909;-64
2020/12/18 07:46:05;;;;;;;;;;;16.40;62.10;;;;;;5052906;28;20293;-62
2020/12/18 07:48:32;;;;;;;;;;;16.40;62.40;;;;;;5052873;28;19920;-62
2020/12/18 07:51:00;;;;;;;;;;;16.40;63.10;;;;;;5032951;28;19959;-62
2020/12/18 07:53:26;;;;;;;;;;;16.50;63.10;;;;;;5052623;28;19908;-64
2020/12/18 07:56:02;;;;;;;;;;;16.40;62.50;;;;;;5052756;28;20285;-64
2020/12/18 07:58:27;;;;;;;;;;;16.50;62.70;;;;;;5041812;28;19916;-62
2020/12/18 08:01:05;;;;;;;;;;;16.50;63.00;;;;;;5051431;28;19996;-62
2020/12/18 08:03:31;;;;;;;;;;;16.40;62.10;;;;;;5034329;28;20003;-62
2020/12/18 08:05:57;;;;;;;;;;;16.40;62.20;;;;;;5052047;28;19944;-63
2020/12/18 08:08:23;;;;;;;;;;;16.50;61.80;;;;;;5040797;28;19909;-63
2020/12/18 08:10:48;;;;;;;;;;;16.50;62.70;;;;;;5032288;28;19956;-63
2020/12/18 08:13:23;;;;;;;;;;;16.50;61.90;;;;;;5032036;28;19964;-62
2020/12/18 08:15:48;;;;;;;;;;;16.50;61.60;;;;;;5032254;28;19913;-62
2020/12/18 08:18:15;;;;;;;;;;;16.50;61.80;;;;;;5032313;28;20305;-62
2020/12/18 08:20:44;;;;;;;;;;;16.50;61.00;;;;;;5032114;28;19909;-63
2020/12/18 08:23:09;;;;;;;;;;;16.50;61.10;;;;;;5031927;28;19992;-64
2020/12/18 08:25:35;;;;;;;;;;;16.50;60.90;;;;;;5032024;28;19944;-63
2020/12/18 08:28:01;;;;;;;;;;;16.50;61.10;;;;;;5032142;28;19909;-64
2020/12/18 08:30:31;;;;;;;;;;;16.60;60.70;;;;;;5046846;28;20376;-63
2020/12/18 08:32:56;;;;;;;;;;;16.60;61.10;;;;;;5032252;28;19912;-64
2020/12/18 08:35:22;;;;;;;;;;;16.60;60.60;;;;;;5014912;28;19936;-63
2020/12/18 08:37:48;;;;;;;;;;;16.70;60.20;;;;;;5031865;28;20003;-64
2020/12/18 08:40:24;;;;;;;;;;;16.60;60.30;;;;;;5014060;28;20019;-63
2020/12/18 08:43:02;;;;;;;;;;;16.70;60.60;;;;;;5031619;28;19933;-64
2020/12/18 08:45:28;;;;;;;;;;;16.80;60.20;;;;;;5031787;28;19905;-63
2020/12/18 08:47:53;;;;;;;;;;;16.80;59.70;;;;;;5031745;28;20286;-64
2020/12/18 08:50:19;;;;;;;;;;;16.90;59.70;;;;;;5031611;28;19916;-63
2020/12/18 08:52:46;;;;;;;;;;;16.90;60.30;;;;;;5031413;28;19971;-64
2020/12/18 08:55:12;;;;;;;;;;;16.90;59.40;;;;;;5031527;28;20366;-63
2020/12/18 08:57:37;;;;;;;;;;;17.00;59.50;;;;;;5046783;28;20011;-64
2020/12/18 09:00:09;;;;;;;;;;;17.00;59.20;;;;;;5037428;28;20000;-64
2020/12/18 09:02:43;;;;;;;;;;;17.00;59.10;;;;;;5031117;28;19909;-61
2020/12/18 09:05:42;;;;;;;;;;;17.10;59.10;;;;;;5031394;28;20522;-62
2020/12/18 09:08:24;;;;;;;;;;;17.10;59.00;;;;;;4978106;28;19912;-63
2020/12/18 09:10:54;;;;;;;;;;;17.10;59.30;;;;;;5031430;28;20461;-63
2020/12/18 09:13:24;;;;;;;;;;;17.20;58.70;;;;;;5030443;28;19924;-62
2020/12/18 09:15:49;;;;;;;;;;;17.20;58.50;;;;;;5028266;28;20433;-63
2020/12/18 09:18:20;;;;;;;;;;;17.30;58.30;;;;;;5031038;28;19931;-63
2020/12/18 09:20:46;;;;;;;;;;;17.30;58.00;;;;;;5013363;28;19905;-63
2020/12/18 09:23:13;;;;;;;;;;;17.30;57.90;;;;;;5031074;28;19959;-63
2020/12/18 09:25:48;;;;;;;;;;;17.30;57.70;;;;;;5031166;28;19913;-62
2020/12/18 09:28:20;;;;;;;;;;;17.40;58.10;;;;;;5013354;28;19912;-62
2020/12/18 09:30:50;;;;;;;;;;;17.40;58.00;;;;;;5030783;28;19935;-63
2020/12/18 09:33:29;;;;;;;;;;;17.50;57.70;;;;;;5030698;28;20361;-64
2020/12/18 09:35:56;;;;;;;;;;;17.60;57.30;;;;;;5030891;28;19905;-64
2020/12/18 09:38:22;;;;;;;;;;;17.70;57.60;;;;;;5013313;28;20326;-65
2020/12/18 09:40:48;;;;;;;;;;;17.70;57.30;;;;;;5038498;28;20393;-64
2020/12/18 09:43:13;;;;;;;;;;;17.80;57.60;;;;;;5013141;28;19909;-64
2020/12/18 09:45:39;;;;;;;;;;;17.90;57.30;;;;;;5013486;28;20402;-63
2020/12/18 09:48:04;;;;;;;;;;;18.00;57.00;;;;;;5031163;28;20389;-62
2020/12/18 09:50:29;;;;;;;;;;;18.10;57.30;;;;;;5013435;28;20378;-63
2020/12/18 09:52:55;;;;;;;;;;;18.10;56.90;;;;;;5030811;28;19912;-63
2020/12/18 09:55:20;;;;;;;;;;;18.10;56.90;;;;;;5031222;28;19932;-62
2020/12/18 09:57:46;;;;;;;;;;;18.10;57.10;;;;;;5013343;28;19924;-64
2020/12/18 10:00:11;;;;;;;;;;;18.20;57.00;;;;;;5013190;28;19913;-63
2020/12/18 10:02:37;;;;;;;;;;;18.20;56.40;;;;;;5030908;28;19927;-63
2020/12/18 10:05:03;;;;;;;;;;;18.20;56.20;;;;;;5012936;28;19951;-64
2020/12/18 10:07:28;;;;;;;;;;;18.30;56.30;;;;;;5030801;28;19927;-64
2020/12/18 10:09:54;;;;;;;;;;;18.30;56.10;;;;;;5030798;28;19916;-64
2020/12/18 10:12:19;;;;;;;;;;;18.40;56.90;;;;;;5030759;28;20483;-63
2020/12/18 10:14:45;;;;;;;;;;;18.60;57.00;;;;;;5030417;28;19936;-63
2020/12/18 10:17:10;;;;;;;;;;;18.60;55.90;;;;;;5030716;28;20390;-64
2020/12/18 10:19:36;;;;;;;;;;;18.70;56.30;;;;;;5012963;28;20003;-63
2020/12/18 10:22:02;;;;;;;;;;;18.70;56.10;;;;;;5013118;28;19996;-64
2020/12/18 10:24:28;;;;;;;;;;;18.80;56.10;;;;;;5030462;28;20387;-64
2020/12/18 10:26:53;;;;;;;;;;;18.90;56.40;;;;;;5030671;28;19906;-64
2020/12/18 10:29:18;;;;;;;;;;;19.00;56.20;;;;;;5012771;28;20328;-63
2020/12/18 10:31:44;;;;;;;;;;;19.00;56.30;;;;;;5016670;28;20369;-63
2020/12/18 10:34:09;;;;;;;;;;;19.10;56.60;;;;;;5034009;28;20118;-64
2020/12/18 10:36:35;;;;;;;;;;;19.10;56.20;;;;;;5034019;28;20330;-64
2020/12/18 10:39:00;;;;;;;;;;;19.10;56.30;;;;;;5034141;28;19909;-65
2020/12/18 10:41:26;;;;;;;;;;;19.00;56.30;;;;;;5034194;28;19963;-63
2020/12/18 10:43:51;;;;;;;;;;;19.10;56.20;;;;;;5033681;28;19909;-63
2020/12/18 10:46:17;;;;;;;;;;;19.10;56.20;;;;;;5034042;28;19911;-63
2020/12/18 10:48:42;;;;;;;;;;;19.10;56.20;;;;;;5033864;28;19913;-63
2020/12/18 10:51:07;;;;;;;;;;;19.10;56.40;;;;;;5016086;28;19916;-63
2020/12/18 10:53:33;;;;;;;;;;;19.10;56.40;;;;;;5015732;28;20003;-65
2020/12/18 10:56:00;;;;;;;;;;;19.20;56.20;;;;;;5016875;28;19948;-64
2020/12/18 10:58:25;;;;;;;;;;;19.20;55.90;;;;;;5024001;28;19909;-66
2020/12/18 11:00:51;;;;;;;;;;;19.20;56.20;;;;;;5033510;28;19909;-65
2020/12/18 11:03:16;;;;;;;;;;;19.20;56.50;;;;;;5015730;28;19954;-64
2020/12/18 11:05:42;;;;;;;;;;;19.20;56.60;;;;;;5033733;28;20000;-64
2020/12/18 11:08:07;;;;;;;;;;;19.20;56.60;;;;;;5033608;28;19913;-64
2020/12/18 11:10:33;;;;;;;;;;;19.20;56.80;;;;;;5033393;28;20554;-65
2020/12/18 11:12:58;;;;;;;;;;;19.30;56.60;;;;;;5033083;28;19909;-64
2020/12/18 11:15:24;;;;;;;;;;;19.30;56.10;;;;;;5033489;28;19911;-65
2020/12/18 11:17:49;;;;;;;;;;;19.40;56.20;;;;;;5033436;28;19961;-60
2020/12/18 11:20:15;;;;;;;;;;;19.30;56.70;;;;;;5033313;28;19959;-64
2020/12/18 11:22:40;;;;;;;;;;;19.50;56.40;;;;;;5015313;28;19909;-64
2020/12/18 11:25:05;;;;;;;;;;;19.50;55.80;;;;;;5033775;28;20328;-64
2020/12/18 11:27:31;;;;;;;;;;;19.50;56.20;;;;;;5015534;28;19912;-63
2020/12/18 11:29:56;;;;;;;;;;;19.50;55.90;;;;;;5033127;28;20310;-64
2020/12/18 11:32:22;;;;;;;;;;;19.30;55.70;;;;;;5015368;28;19916;-64
2020/12/18 11:34:47;;;;;;;;;;;19.30;56.10;;;;;;5033204;28;19905;-64
2020/12/18 11:37:13;;;;;;;;;;;19.30;56.50;;;;;;5033034;28;19951;-64
2020/12/18 11:39:39;;;;;;;;;;;19.20;55.90;;;;;;5025350;28;20301;-65
2020/12/18 11:42:04;;;;;;;;;;;19.20;56.30;;;;;;5045977;28;19936;-65
2020/12/18 11:44:29;;;;;;;;;;;19.10;55.70;;;;;;5032680;28;19944;-64
2020/12/18 11:46:55;;;;;;;;;;;19.10;55.90;;;;;;5032930;28;19975;-64
2020/12/18 11:49:20;;;;;;;;;;;19.10;56.00;;;;;;5022406;28;20003;-63
2020/12/18 11:51:46;;;;;;;;;;;19.00;56.10;;;;;;5034759;28;19953;-64
2020/12/18 11:54:11;;;;;;;;;;;19.00;56.30;;;;;;5026259;28;19913;-64
2020/12/18 11:56:37;;;;;;;;;;;18.90;55.80;;;;;;5014867;28;20413;-64
2020/12/18 11:59:02;;;;;;;;;;;19.00;56.10;;;;;;5014883;28;20381;-65
2020/12/18 12:01:28;;;;;;;;;;;18.90;56.30;;;;;;5032596;28;19905;-65
2020/12/18 12:03:54;;;;;;;;;;;18.90;56.20;;;;;;5032380;28;19906;-65
2020/12/18 12:06:20;;;;;;;;;;;18.80;56.20;;;;;;5032519;28;19951;-64
2020/12/18 12:08:46;;;;;;;;;;;18.80;56.40;;;;;;5014831;28;19953;-65
2020/12/18 12:11:12;;;;;;;;;;;18.80;56.40;;;;;;5014603;28;19959;-65
2020/12/18 12:13:40;;;;;;;;;;;18.80;56.40;;;;;;5035791;28;19972;-64
2020/12/18 12:16:06;;;;;;;;;;;18.70;56.60;;;;;;5034341;28;19999;-65
2020/12/18 12:18:31;;;;;;;;;;;18.70;56.80;;;;;;5052297;28;20365;-65
2020/12/18 12:20:57;;;;;;;;;;;18.70;56.30;;;;;;5052093;28;19909;-64
2020/12/18 12:23:22;;;;;;;;;;;18.70;56.40;;;;;;5047477;28;19909;-65
2020/12/18 12:25:48;;;;;;;;;;;18.70;56.20;;;;;;5014342;28;20042;-64
2020/12/18 12:28:13;;;;;;;;;;;18.60;56.50;;;;;;5032163;28;20282;-64
2020/12/18 12:30:39;;;;;;;;;;;18.60;56.40;;;;;;5040136;28;19909;-65
2020/12/18 12:33:04;;;;;;;;;;;18.60;56.80;;;;;;5051622;28;19916;-65
2020/12/18 12:35:29;;;;;;;;;;;18.60;56.60;;;;;;5033548;28;19904;-64
2020/12/18 12:37:55;;;;;;;;;;;18.60;56.60;;;;;;5049606;28;19905;-64
2020/12/18 12:40:20;;;;;;;;;;;18.60;56.80;;;;;;5014286;28;20293;-65
2020/12/18 12:42:46;;;;;;;;;;;18.60;56.60;;;;;;5031921;28;19909;-63
2020/12/18 12:45:11;;;;;;;;;;;18.50;56.50;;;;;;5032278;28;19909;-63
2020/12/18 12:47:37;;;;;;;;;;;18.50;56.60;;;;;;5048096;28;19915;-63
2020/12/18 12:50:03;;;;;;;;;;;18.50;56.70;;;;;;5021975;28;19920;-60
2020/12/18 12:52:29;;;;;;;;;;;18.50;56.80;;;;;;5031397;28;20310;-64
2020/12/18 12:54:54;;;;;;;;;;;18.60;56.90;;;;;;5031542;28;19909;-63
2020/12/18 12:57:19;;;;;;;;;;;18.50;56.90;;;;;;5031651;28;20372;-63
2020/12/18 12:59:45;;;;;;;;;;;18.60;56.80;;;;;;5013795;28;20440;-63
2020/12/18 13:02:10;;;;;;;;;;;18.60;56.70;;;;;;5047635;28;20308;-63
2020/12/18 13:04:36;;;;;;;;;;;18.60;56.70;;;;;;5051147;28;19957;-64
2020/12/18 13:07:01;;;;;;;;;;;18.60;56.60;;;;;;5046400;28;19916;-63
2020/12/18 13:09:27;;;;;;;;;;;18.60;56.60;;;;;;5041804;28;19916;-61
2020/12/18 13:11:52;;;;;;;;;;;18.60;56.70;;;;;;5051259;28;19971;-64
2020/12/18 13:14:17;;;;;;;;;;;18.60;56.70;;;;;;5050848;28;19916;-64
2020/12/18 13:16:43;;;;;;;;;;;18.60;56.60;;;;;;5051298;28;19905;-66
2020/12/18 13:19:08;;;;;;;;;;;18.60;56.70;;;;;;5033213;28;20416;-63
2020/12/18 13:21:34;;;;;;;;;;;18.60;56.60;;;;;;5033040;28;19908;-63
2020/12/18 13:24:00;;;;;;;;;;;18.60;56.70;;;;;;5017009;28;19909;-64
2020/12/18 13:26:26;;;;;;;;;;;18.60;56.40;;;;;;5031117;28;19941;-64
2020/12/18 13:28:52;;;;;;;;;;;18.60;56.60;;;;;;5031406;28;19912;-64
2020/12/18 13:31:19;;;;;;;;;;;18.60;56.80;;;;;;5013407;28;19905;-64
2020/12/18 13:33:44;;;;;;;;;;;18.60;56.90;;;;;;5013111;28;19917;-63
2020/12/18 13:36:10;;;;;;;;;;;18.50;56.40;;;;;;5030803;28;19912;-63
2020/12/18 13:38:35;;;;;;;;;;;18.60;56.70;;;;;;5031167;28;20268;-64
2020/12/18 13:41:01;;;;;;;;;;;18.60;56.50;;;;;;5030873;28;19944;-63
2020/12/18 13:43:26;;;;;;;;;;;18.50;56.00;;;;;;5030713;28;19905;-64
2020/12/18 13:45:53;;;;;;;;;;;18.60;56.20;;;;;;5031954;28;19909;-64
2020/12/18 13:48:18;;;;;;;;;;;18.50;56.20;;;;;;5013091;28;19913;-64
2020/12/18 13:50:44;;;;;;;;;;;18.50;56.20;;;;;;5013104;28;20281;-64
2020/12/18 13:53:09;;;;;;;;;;;18.50;56.00;;;;;;5038270;28;20042;-65
2020/12/18 13:55:35;;;;;;;;;;;18.50;56.20;;;;;;5040082;28;20082;-63
2020/12/18 13:58:00;;;;;;;;;;;18.50;56.40;;;;;;5062220;28;19912;-64
2020/12/18 14:00:26;;;;;;;;;;;18.40;56.30;;;;;;5062964;28;19911;-63
2020/12/18 14:02:51;;;;;;;;;;;18.50;56.30;;;;;;5065364;28;19915;-62
2020/12/18 14:05:17;;;;;;;;;;;18.50;56.40;;;;;;5034161;28;19909;-64
2020/12/18 14:07:42;;;;;;;;;;;18.50;56.70;;;;;;5043434;28;19908;-62
2020/12/18 14:10:08;;;;;;;;;;;18.50;56.70;;;;;;5045598;28;19916;-64
2020/12/18 14:12:33;;;;;;;;;;;18.50;56.60;;;;;;5040352;28;19931;-61
2020/12/18 14:14:59;;;;;;;;;;;18.50;56.70;;;;;;5049568;28;19909;-66
2020/12/18 14:17:24;;;;;;;;;;;18.50;56.90;;;;;;5041365;28;19987;-64
2020/12/18 14:19:50;;;;;;;;;;;18.50;56.90;;;;;;5032904;28;20348;-64
2020/12/18 14:22:16;;;;;;;;;;;18.50;56.90;;;;;;5033596;28;19909;-63